createdAt,value
2019-01-22T00:01:43.331Z,0.40
2019-01-22T00:04:13.272Z,0.40
2019-01-22T00:06:42.954Z,0.30
2019-01-22T00:09:12.538Z,0.20
2019-01-22T00:11:41.992Z,0.30
2019-01-22T00:14:12.213Z,0.30
2019-01-22T00:16:41.778Z,0.30
2019-01-22T00:19:11.389Z,0.20
2019-01-22T00:21:41.647Z,0.30
2019-01-22T00:24:11.766Z,0.30
2019-01-22T00:26:41.590Z,0.20
2019-01-22T00:29:11.157Z,0.30
2019-01-22T00:31:41.149Z,0.20
2019-01-22T00:34:10.865Z,0.10
2019-01-22T00:36:40.493Z,0.30
2019-01-22T00:39:10.508Z,0.20
2019-01-22T00:41:40.389Z,0.20
2019-01-22T00:44:10.230Z,0.20
2019-01-22T00:46:40.225Z,0.40
2019-01-22T00:49:10.025Z,0.50
2019-01-22T00:51:39.689Z,0.30
2019-01-22T00:54:09.748Z,0.50
2019-01-22T00:56:40.597Z,0.60
2019-01-22T00:59:10.354Z,0.50
2019-01-22T01:01:40.506Z,0.50
2019-01-22T01:04:10.112Z,0.60
2019-01-22T01:06:40.290Z,0.70
2019-01-22T01:09:10.248Z,0.60
2019-01-22T01:11:40.142Z,0.50
2019-01-22T01:14:09.801Z,0.50
2019-01-22T01:16:39.514Z,0.60
2019-01-22T01:19:09.713Z,0.60
2019-01-22T01:21:39.746Z,0.60
2019-01-22T01:24:09.721Z,0.60
2019-01-22T01:26:39.525Z,0.50
2019-01-22T01:29:09.193Z,0.50
2019-01-22T01:31:38.781Z,0.60
2019-01-22T01:34:08.872Z,0.60
2019-01-22T01:36:38.519Z,0.70
2019-01-22T01:39:08.502Z,0.60
2019-01-22T01:41:38.213Z,0.60
2019-01-22T01:44:07.994Z,0.60
2019-01-22T01:46:37.969Z,0.70
2019-01-22T01:49:07.627Z,0.70
2019-01-22T01:51:38.021Z,0.70
2019-01-22T01:54:08.448Z,0.70
2019-01-22T01:56:38.178Z,0.60
2019-01-22T01:59:08.136Z,0.60
2019-01-22T02:01:39.054Z,0.60
2019-01-22T02:04:08.572Z,0.70
2019-01-22T02:06:38.197Z,0.70
2019-01-22T02:09:07.870Z,0.70
2019-01-22T02:11:37.585Z,0.70
2019-01-22T02:14:07.445Z,0.70
2019-01-22T02:16:49.248Z,0.70
2019-01-22T02:19:22.121Z,0.80
2019-01-22T02:21:58.077Z,0.80
2019-01-22T02:24:30.758Z,0.70
2019-01-22T02:27:12.178Z,0.60
2019-01-22T02:30:18.493Z,0.60
2019-01-22T02:32:57.348Z,0.70
2019-01-22T02:35:29.894Z,0.90
2019-01-22T02:38:02.114Z,0.80
2019-01-22T02:40:34.589Z,0.60
2019-01-22T02:43:35.642Z,0.50
2019-01-22T02:46:11.653Z,0.50
2019-01-22T02:48:53.235Z,0.50
2019-01-22T02:51:40.670Z,0.50
2019-01-22T02:54:12.320Z,0.50
2019-01-22T02:56:47.708Z,0.50
2019-01-22T02:59:32.404Z,0.60
2019-01-22T03:02:05.237Z,0.60
2019-01-22T03:04:46.685Z,0.70
2019-01-22T03:07:28.369Z,0.80
2019-01-22T03:10:12.820Z,0.70
2019-01-22T03:13:09.266Z,0.80
2019-01-22T03:16:14.902Z,0.80
2019-01-22T03:19:05.619Z,0.80
2019-01-22T03:21:46.601Z,0.90
2019-01-22T03:24:24.523Z,0.90
2019-01-22T03:27:09.011Z,0.90
2019-01-22T03:30:00.035Z,1.00
2019-01-22T03:32:47.699Z,0.90
2019-01-22T03:35:29.549Z,0.80
2019-01-22T03:38:26.124Z,0.90
2019-01-22T03:41:34.335Z,0.90
2019-01-22T03:44:23.296Z,0.90
2019-01-22T03:47:08.342Z,0.90
2019-01-22T03:49:40.455Z,1.00
2019-01-22T03:52:15.557Z,1.10
2019-01-22T03:54:53.483Z,1.10
2019-01-22T03:57:29.586Z,1.10
2019-01-22T03:59:59.566Z,1.10
2019-01-22T04:02:30.120Z,1.20
2019-01-22T04:04:59.753Z,1.20
2019-01-22T04:07:30.853Z,1.20
2019-01-22T04:10:00.905Z,1.10
2019-01-22T04:12:30.754Z,0.90
2019-01-22T04:15:00.864Z,1.00
2019-01-22T04:17:30.702Z,0.90
2019-01-22T04:20:00.485Z,0.90
2019-01-22T04:22:32.526Z,0.80
2019-01-22T04:25:05.194Z,0.70
2019-01-22T04:27:49.570Z,0.70
2019-01-22T04:30:40.966Z,0.70
2019-01-22T04:33:25.466Z,0.80
2019-01-22T04:35:57.902Z,0.80
2019-01-22T04:39:05.497Z,0.80
2019-01-22T04:41:58.357Z,0.80
2019-01-22T04:44:39.245Z,0.70
2019-01-22T04:47:14.752Z,0.70
2019-01-22T04:50:19.850Z,0.80
2019-01-22T04:53:01.201Z,0.80
2019-01-22T04:55:48.141Z,0.90
2019-01-22T04:58:23.189Z,0.90
2019-01-22T05:01:04.433Z,1.00
2019-01-22T05:03:39.409Z,1.00
2019-01-22T05:06:23.728Z,0.90
2019-01-22T05:09:15.273Z,0.90
2019-01-22T05:11:47.472Z,1.00
2019-01-22T05:14:22.480Z,0.90
2019-01-22T05:17:09.528Z,0.80
2019-01-22T05:19:41.778Z,0.80
2019-01-22T05:22:30.473Z,0.80
2019-01-22T05:25:05.657Z,0.90
2019-01-22T05:27:43.561Z,0.90
2019-01-22T05:30:36.853Z,0.90
2019-01-22T05:33:30.405Z,0.70
2019-01-22T05:36:05.750Z,0.90
2019-01-22T05:38:50.245Z,0.80
2019-01-22T05:41:47.508Z,0.90
2019-01-22T05:44:31.693Z,0.90
2019-01-22T05:47:04.030Z,0.80
2019-01-22T05:50:12.305Z,0.90
2019-01-22T05:53:09.823Z,0.90
2019-01-22T05:55:44.741Z,0.90
2019-01-22T05:58:19.891Z,1.00
2019-01-22T06:00:52.157Z,1.00
2019-01-22T06:03:36.504Z,1.00
2019-01-22T06:06:14.197Z,1.00
2019-01-22T06:08:55.679Z,0.90
2019-01-22T06:11:50.699Z,0.80
2019-01-22T06:14:40.113Z,0.80
2019-01-22T06:17:27.729Z,0.80
2019-01-22T06:20:27.754Z,0.80
2019-01-22T06:23:20.735Z,0.80
2019-01-22T06:26:05.084Z,0.70
2019-01-22T06:29:02.615Z,0.50
2019-01-22T06:31:51.222Z,0.30
2019-01-22T06:34:39.566Z,0.30
2019-01-22T06:37:20.872Z,0.20
2019-01-22T06:40:04.997Z,0.10
2019-01-22T06:42:46.162Z,0.10
2019-01-22T06:45:42.854Z,0.00
2019-01-22T06:48:15.985Z,0.00
2019-01-22T06:50:56.824Z,-0.10
2019-01-22T06:53:40.867Z,-0.10
2019-01-22T06:56:13.649Z,-0.20
2019-01-22T06:58:46.469Z,-0.20
2019-01-22T07:01:43.930Z,-0.20
2019-01-22T07:04:16.443Z,-0.20
2019-01-22T07:07:17.177Z,-0.30
2019-01-22T07:10:13.046Z,-0.30
2019-01-22T07:12:51.964Z,-0.40
2019-01-22T07:15:45.170Z,-0.40
2019-01-22T07:18:32.475Z,-0.40
2019-01-22T07:21:27.632Z,-0.50
2019-01-22T07:24:15.442Z,-0.40
2019-01-22T07:26:59.835Z,-0.50
2019-01-22T07:29:56.752Z,-0.50
2019-01-22T07:32:34.901Z,-0.50
2019-01-22T07:35:24.935Z,-0.50
2019-01-22T07:38:03.480Z,-0.50
2019-01-22T07:40:50.489Z,-0.50
2019-01-22T07:43:23.261Z,-0.50
2019-01-22T07:46:11.737Z,-0.50
2019-01-22T07:48:50.022Z,-0.50
2019-01-22T07:51:34.804Z,-0.50
2019-01-22T07:54:16.091Z,-0.50
2019-01-22T07:56:51.212Z,-0.40
2019-01-22T07:59:26.364Z,-0.30
2019-01-22T08:02:08.472Z,-0.20
2019-01-22T08:04:51.539Z,-0.20
2019-01-22T08:07:34.677Z,-0.20
2019-01-22T08:10:29.229Z,-0.20
2019-01-22T08:13:11.557Z,-0.10
2019-01-22T08:15:47.971Z,0.00
2019-01-22T08:18:27.034Z,0.10
2019-01-22T08:21:13.136Z,0.20
2019-01-22T08:23:51.505Z,0.30
2019-01-22T08:26:29.403Z,0.40
2019-01-22T08:29:26.074Z,0.40
2019-01-22T08:32:01.491Z,0.40
2019-01-22T08:34:54.743Z,0.40
2019-01-22T08:37:41.837Z,0.30
2019-01-22T08:40:17.448Z,0.50
2019-01-22T08:42:49.577Z,0.50
2019-01-22T08:45:27.733Z,0.70
2019-01-22T08:48:14.652Z,0.80
2019-01-22T08:50:46.846Z,0.80
2019-01-22T08:53:18.995Z,0.80
2019-01-22T08:55:53.775Z,0.90
2019-01-22T08:58:42.883Z,1.00
2019-01-22T09:01:21.121Z,1.00
2019-01-22T09:04:09.758Z,1.00
2019-01-22T09:06:53.734Z,1.00
2019-01-22T09:09:25.867Z,1.00
2019-01-22T09:12:04.156Z,1.10
2019-01-22T09:14:36.456Z,1.20
2019-01-22T09:17:09.365Z,1.00
2019-01-22T09:19:47.173Z,1.20
2019-01-22T09:22:40.276Z,1.40
2019-01-22T09:25:14.818Z,1.30
2019-01-22T09:28:01.433Z,1.40
2019-01-22T09:30:36.444Z,1.40
2019-01-22T09:33:08.636Z,1.30
2019-01-22T09:36:06.569Z,1.40
2019-01-22T09:38:36.026Z,1.40
2019-01-22T09:41:05.576Z,1.50
2019-01-22T09:43:35.311Z,1.50
2019-01-22T09:46:04.852Z,1.50
2019-01-22T09:48:34.205Z,1.60
2019-01-22T09:51:03.995Z,1.50
2019-01-22T09:53:33.803Z,1.40
2019-01-22T09:56:03.149Z,1.50
2019-01-22T09:58:33.240Z,1.70
2019-01-22T10:01:02.692Z,1.90
2019-01-22T10:03:32.150Z,2.00
2019-01-22T10:06:02.203Z,2.10
2019-01-22T10:08:31.597Z,2.00
2019-01-22T10:11:01.884Z,2.00
2019-01-22T10:13:31.553Z,2.00
2019-01-22T10:16:00.924Z,1.90
2019-01-22T10:18:31.505Z,2.00
2019-01-22T10:21:00.902Z,2.10
2019-01-22T10:23:30.337Z,2.20
2019-01-22T10:26:00.012Z,2.30
2019-01-22T10:28:29.389Z,2.30
2019-01-22T10:30:58.752Z,2.40
2019-01-22T10:33:28.460Z,2.40
2019-01-22T10:36:05.501Z,2.30
2019-01-22T10:38:35.088Z,2.30
2019-01-22T10:41:04.862Z,2.20
2019-01-22T10:43:34.245Z,2.20
2019-01-22T10:46:03.705Z,2.40
2019-01-22T10:48:34.703Z,2.50
2019-01-22T10:51:05.398Z,2.60
2019-01-22T10:53:35.245Z,2.70
2019-01-22T10:56:04.794Z,2.70
2019-01-22T10:58:34.279Z,2.70
2019-01-22T11:01:04.000Z,2.60
2019-01-22T11:03:33.345Z,2.70
2019-01-22T11:06:02.851Z,2.50
2019-01-22T11:08:32.810Z,2.40
2019-01-22T11:11:16.008Z,2.40
2019-01-22T11:13:54.174Z,2.20
2019-01-22T11:16:23.826Z,2.10
2019-01-22T11:18:53.165Z,2.00
2019-01-22T11:21:23.763Z,1.90
2019-01-22T11:23:54.825Z,2.10
2019-01-22T11:26:24.281Z,1.90
2019-01-22T11:28:53.725Z,1.90
2019-01-22T11:31:23.485Z,1.90
2019-01-22T11:33:52.933Z,1.80
2019-01-22T11:36:22.385Z,1.90
2019-01-22T11:38:51.934Z,2.00
2019-01-22T11:41:21.402Z,2.10
2019-01-22T11:43:50.741Z,2.00
2019-01-22T11:46:20.127Z,2.10
2019-01-22T11:48:49.573Z,2.30
2019-01-22T11:51:19.160Z,2.20
2019-01-22T11:53:48.536Z,2.50
2019-01-22T11:56:17.889Z,2.20
2019-01-22T11:58:47.617Z,2.30
2019-01-22T12:01:17.125Z,2.60
2019-01-22T12:03:46.476Z,2.30
2019-01-22T12:06:15.829Z,2.60
2019-01-22T12:08:45.219Z,2.70
2019-01-22T12:11:14.685Z,2.70
2019-01-22T12:13:44.046Z,2.70
2019-01-22T12:16:13.418Z,2.70
2019-01-22T12:18:42.832Z,2.80
2019-01-22T12:21:12.281Z,2.70
2019-01-22T12:23:42.605Z,2.90
2019-01-22T12:26:12.115Z,2.90
2019-01-22T12:28:41.829Z,2.80
2019-01-22T12:31:11.261Z,2.80
2019-01-22T12:33:40.609Z,2.70
2019-01-22T12:36:09.961Z,2.80
2019-01-22T12:38:39.446Z,2.70
2019-01-22T12:41:10.037Z,2.60
2019-01-22T12:43:43.878Z,2.70
2019-01-22T12:46:14.531Z,2.80
2019-01-22T12:48:52.527Z,2.80
2019-01-22T12:51:28.258Z,2.80
2019-01-22T12:53:59.724Z,2.80
2019-01-22T12:56:29.088Z,2.70
2019-01-22T12:58:59.566Z,2.70
2019-01-22T13:01:29.312Z,2.60
2019-01-22T13:04:02.377Z,2.70
2019-01-22T13:06:33.552Z,2.70
2019-01-22T13:09:06.384Z,2.80
2019-01-22T13:11:36.653Z,3.00
2019-01-22T13:14:07.753Z,3.30
2019-01-22T13:16:37.413Z,3.20
2019-01-22T13:19:07.029Z,2.90
2019-01-22T13:21:36.641Z,3.00
2019-01-22T13:24:06.129Z,3.40
2019-01-22T13:26:37.957Z,3.40
2019-01-22T13:29:07.959Z,3.50
2019-01-22T13:31:37.489Z,3.50
2019-01-22T13:34:07.239Z,3.70
2019-01-22T13:36:36.969Z,3.60
2019-01-22T13:39:08.760Z,3.40
2019-01-22T13:41:38.206Z,3.20
2019-01-22T13:44:07.686Z,3.30
2019-01-22T13:46:37.393Z,3.00
2019-01-22T13:49:07.447Z,2.90
2019-01-22T13:51:37.929Z,3.10
2019-01-22T13:54:07.721Z,3.50
2019-01-22T13:56:37.165Z,3.60
2019-01-22T13:59:12.081Z,3.70
2019-01-22T14:01:41.991Z,3.90
2019-01-22T14:04:11.390Z,3.70
2019-01-22T14:06:40.885Z,3.70
2019-01-22T14:09:10.346Z,3.50
2019-01-22T14:11:44.453Z,3.40
2019-01-22T14:14:13.928Z,3.70
2019-01-22T14:16:43.461Z,3.90
2019-01-22T14:19:12.909Z,3.80
2019-01-22T14:21:42.441Z,3.70
2019-01-22T14:24:12.101Z,3.70
2019-01-22T14:26:41.455Z,3.60
2019-01-22T14:29:12.080Z,3.50
2019-01-22T14:31:42.763Z,3.50
2019-01-22T14:34:13.614Z,3.50
2019-01-22T14:36:44.100Z,3.50
2019-01-22T14:39:13.706Z,3.30
2019-01-22T14:41:43.162Z,3.30
2019-01-22T14:44:13.082Z,3.20
2019-01-22T14:46:42.459Z,3.20
2019-01-22T14:49:11.894Z,3.00
2019-01-22T14:51:41.381Z,2.90
2019-01-22T14:54:10.838Z,2.80
2019-01-22T14:56:40.678Z,2.60
2019-01-22T14:59:10.066Z,2.60
2019-01-22T15:01:41.919Z,2.40
2019-01-22T15:04:11.814Z,2.40
2019-01-22T15:06:41.537Z,2.30
2019-01-22T15:09:11.630Z,2.30
2019-01-22T15:11:42.077Z,2.20
2019-01-22T15:14:12.139Z,2.00
2019-01-22T15:16:42.235Z,2.00
2019-01-22T15:19:12.051Z,1.90
2019-01-22T15:21:41.433Z,1.90
2019-01-22T15:24:10.903Z,1.80
2019-01-22T15:26:40.269Z,1.70
2019-01-22T15:29:09.654Z,1.70
2019-01-22T15:31:39.948Z,1.50
2019-01-22T15:34:09.428Z,1.40
2019-01-22T15:36:38.905Z,1.40
2019-01-22T15:39:09.909Z,1.30
2019-01-22T15:41:39.757Z,1.20
2019-01-22T15:44:09.113Z,1.30
2019-01-22T15:46:38.586Z,1.20
2019-01-22T15:49:08.677Z,1.20
2019-01-22T15:51:38.165Z,1.20
2019-01-22T15:54:07.516Z,1.20
2019-01-22T15:56:37.370Z,1.10
2019-01-22T15:59:06.757Z,1.20
2019-01-22T16:01:36.209Z,1.10
2019-01-22T16:04:05.863Z,1.10
2019-01-22T16:06:35.344Z,1.10
2019-01-22T16:09:06.873Z,1.10
2019-01-22T16:11:36.320Z,1.20
2019-01-22T16:14:05.811Z,1.10
2019-01-22T16:16:35.686Z,1.00
2019-01-22T16:19:05.017Z,1.10
2019-01-22T16:21:37.580Z,1.10
2019-01-22T16:24:07.165Z,1.10
2019-01-22T16:26:36.585Z,1.10
2019-01-22T16:29:09.556Z,1.00
2019-01-22T16:31:39.819Z,1.00
2019-01-22T16:34:24.539Z,1.10
2019-01-22T16:36:54.418Z,1.10
2019-01-22T16:39:28.998Z,1.00
2019-01-22T16:41:56.567Z,1.10
2019-01-22T16:44:26.024Z,1.10
2019-01-22T16:46:55.818Z,1.00
2019-01-22T16:49:25.195Z,1.00
2019-01-22T16:51:54.621Z,1.00
2019-01-22T16:54:25.782Z,1.00
2019-01-22T16:57:00.473Z,1.00
2019-01-22T16:59:30.045Z,1.00
2019-01-22T17:01:59.520Z,0.90
2019-01-22T17:04:28.979Z,0.90
2019-01-22T17:06:58.920Z,0.90
2019-01-22T17:09:28.440Z,0.90
2019-01-22T17:11:57.877Z,1.00
2019-01-22T17:14:27.655Z,1.00
2019-01-22T17:16:57.044Z,1.00
2019-01-22T17:19:26.526Z,0.90
2019-01-22T17:21:55.983Z,0.80
2019-01-22T17:24:25.397Z,0.80
2019-01-22T17:26:54.902Z,0.80
2019-01-22T17:29:24.377Z,0.80
2019-01-22T17:32:04.562Z,0.80
2019-01-22T17:34:34.236Z,0.80
2019-01-22T17:37:04.905Z,0.80
2019-01-22T17:39:34.561Z,0.70
2019-01-22T17:42:04.022Z,0.70
2019-01-22T17:44:33.769Z,0.60
2019-01-22T17:47:03.317Z,0.50
2019-01-22T17:49:32.768Z,0.50
2019-01-22T17:52:02.336Z,0.50
2019-01-22T17:54:31.742Z,0.50
2019-01-22T17:57:01.539Z,0.50
2019-01-22T17:59:30.974Z,0.50
2019-01-22T18:02:00.453Z,0.50
2019-01-22T18:04:29.922Z,0.40
2019-01-22T18:07:00.436Z,0.30
2019-01-22T18:09:29.925Z,0.30
2019-01-22T18:11:59.390Z,0.30
2019-01-22T18:14:29.098Z,0.20
2019-01-22T18:16:58.585Z,0.10
2019-01-22T18:19:27.950Z,0.10
2019-01-22T18:21:57.501Z,0.10
2019-01-22T18:24:27.014Z,0.10
2019-01-22T18:26:56.849Z,0.10
2019-01-22T18:29:26.306Z,0.10
2019-01-22T18:31:55.827Z,0.10
2019-01-22T18:34:25.281Z,0.00
2019-01-22T18:36:54.738Z,-0.10
2019-01-22T18:39:25.628Z,-0.10
2019-01-22T18:41:54.985Z,-0.10
2019-01-22T18:44:24.554Z,-0.10
2019-01-22T18:46:54.068Z,-0.10
2019-01-22T18:49:23.532Z,-0.20
2019-01-22T18:51:53.023Z,-0.10
2019-01-22T18:54:22.559Z,-0.20
2019-01-22T18:57:07.325Z,-0.10
2019-01-22T18:59:36.832Z,-0.20
2019-01-22T19:02:06.289Z,-0.20
2019-01-22T19:07:22.359Z,-0.20
2019-01-22T19:09:52.034Z,-0.20
2019-01-22T19:12:22.032Z,-0.20
2019-01-22T19:14:51.389Z,-0.20
2019-01-22T19:17:20.781Z,-0.30
2019-01-22T19:19:50.242Z,-0.30
2019-01-22T19:22:19.798Z,-0.30
2019-01-22T19:24:49.322Z,-0.40
2019-01-22T19:27:19.147Z,-0.40
2019-01-22T19:29:48.859Z,-0.40
2019-01-22T19:32:18.451Z,-0.40
2019-01-22T19:34:47.811Z,-0.40
2019-01-22T19:37:17.344Z,-0.40
2019-01-22T19:39:47.016Z,-0.50
2019-01-22T19:42:18.464Z,-0.50
2019-01-22T19:44:47.857Z,-0.50
2019-01-22T19:47:17.618Z,-0.50
2019-01-22T19:49:47.087Z,-0.50
2019-01-22T19:52:35.358Z,-0.50
2019-01-22T19:55:05.764Z,-0.50
2019-01-22T19:57:40.941Z,-0.40
2019-01-22T20:00:17.995Z,-0.40
2019-01-22T20:02:47.361Z,-0.40
2019-01-22T20:05:17.364Z,-0.40
2019-01-22T20:07:46.756Z,-0.50
2019-01-22T20:10:19.345Z,-0.50
2019-01-22T20:12:49.085Z,-0.50
2019-01-22T20:15:21.093Z,-0.60
2019-01-22T20:17:50.871Z,-0.50
2019-01-22T20:20:20.976Z,-0.60
2019-01-22T20:22:52.798Z,-0.70
2019-01-22T20:25:23.578Z,-0.70
2019-01-22T20:27:53.363Z,-0.70
2019-01-22T20:30:35.667Z,-0.80
2019-01-22T20:33:06.207Z,-0.80
2019-01-22T20:35:37.776Z,-0.80
2019-01-22T20:38:14.007Z,-0.80
2019-01-22T20:40:43.928Z,-0.80
2019-01-22T20:43:14.666Z,-0.90
2019-01-22T20:45:46.353Z,-0.90
2019-01-22T20:48:16.509Z,-0.90
2019-01-22T20:50:46.682Z,-1.00
2019-01-22T20:53:16.659Z,-1.00
2019-01-22T20:55:46.510Z,-1.10
2019-01-22T20:58:17.215Z,-1.10
2019-01-22T21:00:47.008Z,-1.10
2019-01-22T21:03:16.442Z,-1.10
2019-01-22T21:05:46.302Z,-1.20
2019-01-22T21:08:16.222Z,-1.20
2019-01-22T21:10:45.666Z,-1.30
2019-01-22T21:13:15.879Z,-1.30
2019-01-22T21:15:45.385Z,-1.30
2019-01-22T21:18:14.894Z,-1.30
2019-01-22T21:20:44.242Z,-1.30
2019-01-22T21:23:13.616Z,-1.20
2019-01-22T21:25:43.392Z,-1.30
2019-01-22T21:28:12.742Z,-1.40
2019-01-22T21:30:42.802Z,-1.30
2019-01-22T21:33:12.766Z,-1.40
2019-01-22T21:35:42.840Z,-1.40
2019-01-22T21:38:12.595Z,-1.40
2019-01-22T21:40:42.075Z,-1.50
2019-01-22T21:43:12.989Z,-1.40
2019-01-22T21:45:43.942Z,-1.40
2019-01-22T21:48:14.551Z,-1.40
2019-01-22T21:50:44.352Z,-1.40
2019-01-22T21:53:14.184Z,-1.50
2019-01-22T21:55:44.387Z,-1.60
2019-01-22T21:58:15.249Z,-1.60
2019-01-22T22:00:45.996Z,-1.70
2019-01-22T22:03:15.665Z,-1.60
2019-01-22T22:05:45.734Z,-1.70
2019-01-22T22:08:15.453Z,-1.70
2019-01-22T22:10:45.278Z,-1.70
2019-01-22T22:13:14.743Z,-1.70
2019-01-22T22:15:44.130Z,-1.70
2019-01-22T22:18:15.182Z,-1.80
2019-01-22T22:20:45.152Z,-1.80
2019-01-22T22:23:14.921Z,-1.80
2019-01-22T22:25:45.164Z,-1.80
2019-01-22T22:28:15.263Z,-1.90
2019-01-22T22:30:45.200Z,-1.80
2019-01-22T22:33:14.938Z,-1.80
2019-01-22T22:35:44.593Z,-1.90
2019-01-22T22:38:14.222Z,-1.90
2019-01-22T22:40:44.056Z,-1.90
2019-01-22T22:43:14.603Z,-1.90
2019-01-22T22:45:44.904Z,-1.90
2019-01-22T22:48:15.453Z,-2.00
2019-01-22T22:50:45.412Z,-2.00
2019-01-22T22:53:15.019Z,-2.00
2019-01-22T22:55:44.982Z,-2.10
2019-01-22T22:58:14.360Z,-2.10
2019-01-22T23:00:52.861Z,-2.10
2019-01-22T23:03:22.598Z,-2.20
2019-01-22T23:05:52.072Z,-2.20
2019-01-22T23:08:21.896Z,-2.20
2019-01-22T23:10:51.275Z,-2.20
2019-01-22T23:13:20.981Z,-2.30
2019-01-22T23:15:50.896Z,-2.30
2019-01-22T23:18:20.595Z,-2.30
2019-01-22T23:20:50.276Z,-2.40
2019-01-22T23:23:20.389Z,-2.40
2019-01-22T23:25:50.269Z,-2.50
2019-01-22T23:28:19.745Z,-2.50
2019-01-22T23:30:49.616Z,-2.50
2019-01-22T23:33:19.084Z,-2.50
2019-01-22T23:35:48.760Z,-2.50
2019-01-22T23:38:19.112Z,-2.50
2019-01-22T23:40:48.601Z,-2.50
2019-01-22T23:43:18.076Z,-2.60
2019-01-22T23:45:47.897Z,-2.60
2019-01-22T23:48:17.367Z,-2.60
2019-01-22T23:50:47.870Z,-2.70
2019-01-22T23:53:17.740Z,-2.70
2019-01-22T23:55:47.208Z,-2.70
2019-01-22T23:58:16.869Z,-2.80
